Time;durP1;ratioP1;P1;durP2;ratioP2;P2;SDS_P1;SDS_P2;PMS_P1;PMS_P2;Temp;Humidity;BMP_temperature;BMP_pressure;BME280_temperature;BME280_humidity;BME280_pressure;Samples;Min_cycle;Max_cycle;Signal;HPM_P1;HPM_P2
2022/06/21 00:02:18;;;;;;;5.13;1.95;;;12.20;99.90;;;;;;5005551;28;20057;-34
2022/06/21 00:04:45;;;;;;;9.68;2.00;;;12.20;99.90;;;;;;5006011;28;20061;-34
2022/06/21 00:07:31;;;;;;;7.88;2.20;;;12.20;99.90;;;;;;4989953;28;20046;-34
2022/06/21 00:09:57;;;;;;;9.52;2.03;;;12.20;99.90;;;;;;5005449;28;20536;-34
2022/06/21 00:12:23;;;;;;;6.72;2.38;;;12.10;99.90;;;;;;5007159;28;20060;-34
2022/06/21 00:14:49;;;;;;;9.32;2.30;;;12.10;99.90;;;;;;5005757;28;20050;-34
2022/06/21 00:17:18;;;;;;;7.47;2.20;;;12.10;99.90;;;;;;4989472;28;20045;-35
2022/06/21 00:19:44;;;;;;;5.45;2.25;;;12.10;99.90;;;;;;5007031;28;20046;-34
2022/06/21 00:22:17;;;;;;;10.40;2.25;;;12.00;99.90;;;;;;5006051;28;20054;-35
2022/06/21 00:24:43;;;;;;;8.68;2.33;;;12.00;99.90;;;;;;4986293;28;20157;-35
2022/06/21 00:27:19;;;;;;;8.73;2.03;;;11.90;99.90;;;;;;4990499;28;20056;-35
2022/06/21 00:29:45;;;;;;;8.93;2.08;;;11.90;99.90;;;;;;5005159;28;20054;-34
2022/06/21 00:32:18;;;;;;;7.22;2.08;;;11.90;99.90;;;;;;4987028;28;20069;-34
2022/06/21 00:34:45;;;;;;;9.52;2.20;;;11.90;99.90;;;;;;5003671;28;20484;-34
2022/06/21 00:37:17;;;;;;;10.35;2.55;;;11.90;99.90;;;;;;4990799;28;20535;-35
2022/06/21 00:39:42;;;;;;;;;;;11.80;99.90;;;;;;5006127;28;20049;-34
2022/06/21 00:42:30;;;;;;;9.43;2.20;;;11.90;99.90;;;;;;5005625;28;20296;-35
2022/06/21 00:45:13;;;;;;;7.97;2.45;;;11.80;99.90;;;;;;5005651;28;20378;-34
2022/06/21 00:47:48;;;;;;;8.45;2.55;;;11.80;99.90;;;;;;4970429;28;20129;-35
2022/06/21 00:50:23;;;;;;;5.00;2.15;;;11.80;99.90;;;;;;5006904;28;20041;-34
2022/06/21 00:53:03;;;;;;;8.13;2.25;;;11.70;99.90;;;;;;5003039;28;20476;-34
2022/06/21 00:55:40;;;;;;;5.22;1.70;;;11.60;99.90;;;;;;5004805;28;20074;-34
2022/06/21 00:58:12;;;;;;;7.78;1.85;;;11.60;99.90;;;;;;4989748;28;20042;-34
2022/06/21 01:01:08;;;;;;;7.82;2.28;;;11.60;99.90;;;;;;4991427;28;20130;-34
2022/06/21 01:03:41;;;;;;;9.38;2.50;;;11.70;99.90;;;;;;4965564;28;20057;-34
2022/06/21 01:06:19;;;;;;;8.43;2.22;;;11.60;99.90;;;;;;4968698;28;20395;-35
2022/06/21 01:08:56;;;;;;;6.10;2.63;;;11.60;99.90;;;;;;4962613;28;20047;-34
2022/06/21 01:11:27;;;;;;;6.88;2.45;;;11.60;99.90;;;;;;4969857;28;20493;-34
2022/06/21 01:13:55;;;;;;;15.23;2.95;;;11.60;99.90;;;;;;4969170;28;20066;-34
2022/06/21 01:16:23;;;;;;;7.22;2.50;;;11.60;99.90;;;;;;4957411;28;20128;-35
2022/06/21 01:18:49;;;;;;;8.98;2.42;;;11.60;99.90;;;;;;4964960;28;20054;-34
2022/06/21 01:21:18;;;;;;;6.13;1.95;;;11.50;99.90;;;;;;4969384;28;20430;-34
2022/06/21 01:24:12;;;;;;;6.82;2.08;;;11.50;99.90;;;;;;4970232;28;20051;-34
2022/06/21 01:27:00;;;;;;;7.90;2.47;;;11.50;99.90;;;;;;4955884;28;20051;-34
2022/06/21 01:29:28;;;;;;;5.60;2.10;;;11.50;99.90;;;;;;4968648;28;20043;-34
2022/06/21 01:32:03;;;;;;;10.27;2.50;;;11.50;99.90;;;;;;4968699;28;20054;-34
2022/06/21 01:34:29;;;;;;;10.48;2.35;;;11.40;99.90;;;;;;4967319;28;20046;-34
2022/06/21 01:37:00;;;;;;;7.82;2.42;;;11.40;99.90;;;;;;4955191;28;20379;-34
2022/06/21 01:39:46;;;;;;;9.02;2.47;;;11.40;99.90;;;;;;4969722;28;20050;-34
2022/06/21 01:42:21;;;;;;;7.72;2.22;;;11.40;99.90;;;;;;4966622;28;20154;-34
2022/06/21 01:44:52;;;;;;;9.95;2.53;;;11.30;99.90;;;;;;4967897;28;20054;-34
2022/06/21 01:47:24;;;;;;;6.40;2.17;;;11.30;99.90;;;;;;4949552;28;20054;-34
2022/06/21 01:49:57;;;;;;;6.53;2.35;;;11.20;99.90;;;;;;4968608;28;20238;-34
2022/06/21 01:52:26;;;;;;;8.00;2.78;;;11.20;99.90;;;;;;4966717;28;20453;-34
2022/06/21 01:55:20;;;;;;;4.65;2.08;;;11.20;99.90;;;;;;4970170;28;20482;-34
2022/06/21 01:57:49;;;;;;;7.75;2.47;;;11.20;99.90;;;;;;4950012;28;20518;-34
2022/06/21 02:00:15;;;;;;;7.30;2.30;;;11.30;99.90;;;;;;4968908;28;20502;-34
2022/06/21 02:02:49;;;;;;;8.77;2.30;;;11.10;99.90;;;;;;4998836;28;20129;-34
2022/06/21 02:05:18;;;;;;;7.78;2.15;;;11.00;99.90;;;;;;5007133;28;20148;-34
2022/06/21 02:07:56;;;;;;;7.65;2.35;;;10.90;99.90;;;;;;4991925;28;20060;-34
2022/06/21 02:10:32;;;;;;;4.60;2.10;;;11.00;99.90;;;;;;4988989;28;20048;-34
2022/06/21 02:13:08;;;;;;;5.28;2.40;;;11.00;99.90;;;;;;5009280;28;20068;-34
2022/06/21 02:15:48;;;;;;;8.73;2.25;;;10.90;99.90;;;;;;5007516;28;20053;-34
2022/06/21 02:18:17;;;;;;;6.47;2.00;;;10.90;99.90;;;;;;4990572;28;20528;-34
2022/06/21 02:20:57;;;;;;;4.38;2.40;;;11.00;99.90;;;;;;5007932;28;20057;-34
2022/06/21 02:23:23;;;;;;;4.93;2.53;;;10.90;99.90;;;;;;5004330;28;20049;-34
2022/06/21 02:25:51;;;;;;;11.93;2.97;;;10.90;99.90;;;;;;5007617;28;20050;-34
2022/06/21 02:28:19;;;;;;;6.10;2.88;;;11.00;99.90;;;;;;4991926;28;20042;-34
2022/06/21 02:30:47;;;;;;;5.75;3.00;;;11.00;99.90;;;;;;5000745;28;20054;-34
2022/06/21 02:33:28;;;;;;;8.48;2.97;;;10.80;99.90;;;;;;5009434;28;20034;-34
2022/06/21 02:36:17;;;;;;;10.88;3.15;;;10.90;99.90;;;;;;5013174;28;20584;-33
2022/06/21 02:38:47;;;;;;;6.10;2.90;;;11.00;99.90;;;;;;5007597;28;20042;-33
2022/06/21 02:41:22;;;;;;;9.35;3.42;;;10.90;99.90;;;;;;5008920;28;20092;-34
2022/06/21 02:44:00;;;;;;;7.90;3.22;;;10.90;99.90;;;;;;5008261;28;20398;-34
2022/06/21 02:46:31;;;;;;;9.52;3.40;;;10.80;99.90;;;;;;5000306;28;20483;-34
2022/06/21 02:49:05;;;;;;;10.38;3.47;;;10.90;99.90;;;;;;5007887;28;20452;-34
2022/06/21 02:51:37;;;;;;;10.88;3.50;;;10.90;99.90;;;;;;5013821;28;20096;-33
2022/06/21 02:54:26;;;;;;;10.48;3.53;;;10.90;99.90;;;;;;5010754;28;20483;-34
2022/06/21 02:57:07;;;;;;;9.48;3.28;;;10.90;99.90;;;;;;4995093;28;20084;-34
2022/06/21 02:59:36;;;;;;;11.18;3.67;;;11.00;99.90;;;;;;5011551;28;20520;-34
2022/06/21 03:02:07;;;;;;;10.27;3.97;;;11.00;99.90;;;;;;5008687;28;20064;-34
2022/06/21 03:04:41;;;;;;;4.53;3.78;;;11.00;99.90;;;;;;5010384;28;20896;-33
2022/06/21 03:07:13;;;;;;;9.43;3.97;;;11.00;99.90;;;;;;4996826;28;20509;-34
2022/06/21 03:09:39;;;;;;;8.85;3.97;;;11.00;99.90;;;;;;5007914;28;20068;-34
2022/06/21 03:12:07;;;;;;;7.50;4.30;;;11.10;99.90;;;;;;5010730;28;20695;-34
2022/06/21 03:14:36;;;;;;;9.00;3.85;;;11.10;99.90;;;;;;5012900;28;20046;-34
2022/06/21 03:17:03;;;;;;;8.18;3.75;;;11.10;99.90;;;;;;4997770;28;20053;-34
2022/06/21 03:19:49;;;;;;;7.95;3.50;;;11.10;99.90;;;;;;5010738;28;20493;-34
2022/06/21 03:22:42;;;;;;;9.82;3.90;;;11.10;99.90;;;;;;5008516;28;20042;-34
2022/06/21 03:25:20;;;;;;;9.93;4.07;;;11.20;99.90;;;;;;5008748;28;20105;-34
2022/06/21 03:27:53;;;;;;;8.32;3.75;;;11.20;99.90;;;;;;4994892;28;20040;-34
2022/06/21 03:30:20;;;;;;;7.25;3.97;;;11.20;99.90;;;;;;5009796;28;20060;-34
2022/06/21 03:32:49;;;;;;;8.48;3.70;;;11.20;99.90;;;;;;5011535;28;20042;-34
2022/06/21 03:35:15;;;;;;;10.77;4.05;;;11.10;99.90;;;;;;5009319;28;20061;-34
2022/06/21 03:37:42;;;;;;;7.65;4.10;;;11.20;99.90;;;;;;4994079;28;20061;-35
2022/06/21 03:42:58;;;;;;;4.88;3.45;;;11.20;99.90;;;;;;5006843;28;20481;-34
2022/06/21 03:45:32;;;;;;;9.15;4.07;;;11.30;99.90;;;;;;5010516;28;20046;-34
2022/06/21 03:48:13;;;;;;;8.68;4.07;;;11.40;99.90;;;;;;4993116;28;20052;-34
2022/06/21 03:51:03;;;;;;;12.38;4.40;;;11.40;99.90;;;;;;5005665;28;20641;-34
2022/06/21 03:54:01;;;;;;;10.18;4.03;;;11.40;99.90;;;;;;5006595;28;20405;-34
2022/06/21 03:56:39;;;;;;;6.30;4.18;;;11.40;99.90;;;;;;4975392;28;20400;-34
2022/06/21 03:59:47;;;;;;;11.63;4.20;;;11.40;99.90;;;;;;5006489;28;20049;-34
2022/06/21 04:02:23;;;;;;;9.13;3.78;;;11.40;99.90;;;;;;4929889;29;20577;-34
2022/06/21 04:04:54;;;;;;;8.60;4.35;;;11.40;99.90;;;;;;4939506;29;20055;-34
2022/06/21 04:07:20;;;;;;;;;;;11.40;99.90;;;;;;4963967;28;20054;-34
2022/06/21 04:10:09;;;;;;;7.00;4.05;;;11.40;99.90;;;;;;5008820;28;19929;-34
2022/06/21 04:12:53;;;;;;;5.82;3.72;;;11.40;99.90;;;;;;4991399;28;20497;-34
2022/06/21 04:15:28;;;;;;;6.90;3.88;;;11.40;99.90;;;;;;5000379;28;20038;-34
2022/06/21 04:18:02;;;;;;;8.93;4.45;;;11.50;99.90;;;;;;4994434;28;20057;-34
2022/06/21 04:20:53;;;;;;;8.18;3.72;;;11.50;99.90;;;;;;5007134;28;20152;-34
2022/06/21 04:23:33;;;;;;;8.82;3.97;;;11.50;99.90;;;;;;5002117;28;20501;-34
2022/06/21 04:26:05;;;;;;;9.73;4.20;;;11.50;99.90;;;;;;5009665;28;20058;-34
2022/06/21 04:28:41;;;;;;;6.97;3.95;;;11.50;99.90;;;;;;4996380;28;20050;-34
2022/06/21 04:31:30;;;;;;;10.52;4.15;;;11.50;99.90;;;;;;5010731;28;20116;-34
2022/06/21 04:34:19;;;;;;;8.40;3.88;;;11.60;99.90;;;;;;5012970;28;20100;-34
2022/06/21 04:36:52;;;;;;;10.43;4.07;;;11.50;99.90;;;;;;4999662;28;20046;-34
2022/06/21 04:39:26;;;;;;;7.40;3.65;;;11.50;99.90;;;;;;5012887;28;20042;-34
2022/06/21 04:42:01;;;;;;;7.50;4.13;;;11.50;99.90;;;;;;5013114;28;20061;-34
2022/06/21 04:44:47;;;;;;;7.63;4.38;;;11.60;99.90;;;;;;5011769;28;20128;-34
2022/06/21 04:47:42;;;;;;;9.60;4.45;;;11.60;99.90;;;;;;4995780;28;20064;-34
2022/06/21 04:50:32;;;;;;;8.93;4.50;;;11.60;99.90;;;;;;5004183;28;20053;-34
2022/06/21 04:53:22;;;;;;;10.90;4.78;;;11.70;99.90;;;;;;5011161;28;20116;-34
2022/06/21 04:55:48;;;;;;;7.53;4.63;;;11.60;99.90;;;;;;4997275;28;20065;-34
2022/06/21 04:58:14;;;;;;;7.45;4.50;;;11.70;99.90;;;;;;4996485;28;20042;-34
2022/06/21 05:00:39;;;;;;;8.02;5.10;;;11.80;99.90;;;;;;5015925;28;20521;-34
2022/06/21 05:03:25;;;;;;;10.68;5.63;;;11.90;99.90;;;;;;5012672;28;20054;-34
2022/06/21 05:05:51;;;;;;;11.73;5.10;;;11.90;99.90;;;;;;4994896;28;20050;-33
2022/06/21 05:08:21;;;;;;;8.18;4.68;;;12.00;99.90;;;;;;4987848;28;20049;-34
2022/06/21 05:10:50;;;;;;;9.40;5.13;;;12.20;99.90;;;;;;4993418;28;20073;-34
2022/06/21 05:13:24;;;;;;;8.80;4.72;;;12.20;99.90;;;;;;5009917;28;20548;-34
2022/06/21 05:15:51;;;;;;;6.65;4.35;;;12.40;99.90;;;;;;5011439;28;20092;-34
2022/06/21 05:18:23;;;;;;;8.80;4.82;;;12.40;99.90;;;;;;4994472;28;20128;-34
2022/06/21 05:20:55;;;;;;;8.70;4.70;;;12.60;99.90;;;;;;5013629;28;20049;-34
2022/06/21 05:23:22;;;;;;;15.10;5.03;;;12.70;99.90;;;;;;5010525;28;20058;-34
2022/06/21 05:25:50;;;;;;;9.63;4.95;;;12.60;99.90;;;;;;4995583;28;20050;-34
2022/06/21 05:28:37;;;;;;;9.38;4.88;;;12.70;99.90;;;;;;4997622;28;20053;-34
2022/06/21 05:31:17;;;;;;;8.65;4.55;;;12.80;99.90;;;;;;5011901;28;20864;-34
2022/06/21 05:34:01;;;;;;;9.43;5.15;;;13.00;99.90;;;;;;5012620;28;20057;-33
2022/06/21 05:36:35;;;;;;;7.15;4.70;;;13.10;99.90;;;;;;4999549;28;20056;-34
2022/06/21 05:39:08;;;;;;;8.93;4.95;;;13.10;99.90;;;;;;4976506;28;20084;-34
2022/06/21 05:41:42;;;;;;;9.15;4.90;;;13.20;99.90;;;;;;5010712;28;20511;-34
2022/06/21 05:44:23;;;;;;;12.15;5.15;;;13.30;99.90;;;;;;5008088;28;20041;-34
2022/06/21 05:46:53;;;;;;;7.70;4.43;;;13.40;99.90;;;;;;4978205;28;20146;-34
2022/06/21 05:49:27;;;;;;;7.75;4.72;;;13.50;99.90;;;;;;4993439;28;20412;-34
2022/06/21 05:51:57;;;;;;;9.77;4.85;;;13.60;99.90;;;;;;5009953;28;20517;-34
2022/06/21 05:54:28;;;;;;;8.27;4.78;;;13.80;99.90;;;;;;5026318;28;20053;-34
2022/06/21 05:56:54;;;;;;;12.05;5.72;;;13.90;99.90;;;;;;4997350;28;20072;-34
2022/06/21 05:59:23;;;;;;;9.93;5.05;;;14.00;99.90;;;;;;5012592;28;20046;-34
2022/06/21 06:01:52;;;;;;;8.65;4.88;;;14.10;99.90;;;;;;5011145;28;20112;-34
2022/06/21 06:04:22;;;;;;;7.57;4.97;;;14.20;99.90;;;;;;5016768;28;20416;-34
2022/06/21 06:06:48;;;;;;;8.25;4.45;;;14.40;99.90;;;;;;4997225;28;20049;-34
2022/06/21 06:09:25;;;;;;;10.73;5.05;;;14.50;99.90;;;;;;4990708;28;20123;-34
2022/06/21 06:12:03;;;;;;;8.73;4.90;;;14.60;99.90;;;;;;5008546;28;20494;-34
2022/06/21 06:14:44;;;;;;;6.60;4.22;;;14.70;99.90;;;;;;5014224;28;20049;-34
2022/06/21 06:17:33;;;;;;;8.95;3.42;;;14.70;99.90;;;;;;4997227;28;20164;-35
2022/06/21 06:20:19;;;;;;;8.10;2.85;;;14.80;99.90;;;;;;5009498;28;20054;-34
2022/06/21 06:22:52;;;;;;;5.32;3.03;;;14.90;99.90;;;;;;5013956;28;20069;-34
2022/06/21 06:25:28;;;;;;;5.40;2.40;;;14.90;99.90;;;;;;5002403;28;20122;-34
2022/06/21 06:28:12;;;;;;;11.57;2.88;;;14.90;99.90;;;;;;4984542;28;20073;-34
2022/06/21 06:30:44;;;;;;;9.35;3.03;;;14.90;99.90;;;;;;5015997;28;20061;-34
2022/06/21 06:33:20;;;;;;;6.78;2.33;;;14.90;99.90;;;;;;4999222;28;20104;-34
2022/06/21 06:35:47;;;;;;;8.93;3.10;;;14.90;99.90;;;;;;4998799;28;20449;-34
2022/06/21 06:38:15;;;;;;;9.00;3.20;;;14.90;99.90;;;;;;5004145;28;20564;-34
2022/06/21 06:40:46;;;;;;;5.70;3.03;;;14.90;99.90;;;;;;5018281;28;20377;-34
2022/06/21 06:43:37;;;;;;;5.38;2.95;;;14.90;99.90;;;;;;4995872;28;20046;-34
2022/06/21 06:46:04;;;;;;;11.35;4.18;;;15.00;99.90;;;;;;5017367;28;20124;-34
2022/06/21 06:48:37;;;;;;;6.65;3.95;;;15.00;99.90;;;;;;4983307;28;20084;-35
2022/06/21 06:51:15;;;;;;;8.70;3.88;;;15.10;99.90;;;;;;4993418;28;20061;-34
2022/06/21 06:53:48;;;;;;;9.20;3.85;;;15.10;99.90;;;;;;5015856;28;20069;-34
2022/06/21 06:56:21;;;;;;;8.10;3.10;;;15.20;99.90;;;;;;5006987;28;20041;-34
2022/06/21 06:58:57;;;;;;;9.77;3.80;;;15.30;99.90;;;;;;5014378;28;20049;-34
2022/06/21 07:01:49;;;;;;;9.45;3.30;;;15.30;99.90;;;;;;5014329;28;20113;-34
2022/06/21 07:04:17;;;;;;;9.23;3.28;;;15.30;99.90;;;;;;5000904;28;20491;-34
2022/06/21 07:06:47;;;;;;;5.55;3.15;;;15.30;99.90;;;;;;4999312;28;20520;-34
2022/06/21 07:09:35;;;;;;;7.35;3.33;;;15.30;99.90;;;;;;5014700;28;20072;-34
2022/06/21 07:12:17;;;;;;;8.82;3.03;;;15.30;99.90;;;;;;5013129;28;20064;-34
2022/06/21 07:14:44;;;;;;;7.43;2.78;;;15.30;99.90;;;;;;5009006;28;20125;-34
2022/06/21 07:17:36;;;;;;;7.72;2.88;;;15.30;99.90;;;;;;5002783;28;20042;-34
2022/06/21 07:20:02;;;;;;;;;;;15.30;99.90;;;;;;5013957;28;20034;-34
2022/06/21 07:22:34;;;;;;;8.10;3.08;;;15.30;99.90;;;;;;5012259;28;19929;-34
2022/06/21 07:25:29;;;;;;;8.43;3.30;;;15.40;99.90;;;;;;5018340;28;20386;-34
2022/06/21 07:28:00;;;;;;;7.93;3.40;;;15.40;99.90;;;;;;4997344;28;20054;-34
2022/06/21 07:30:33;;;;;;;10.00;3.33;;;15.50;99.90;;;;;;5012006;28;20053;-35
2022/06/21 07:33:07;;;;;;;7.15;3.58;;;15.50;99.90;;;;;;5012377;28;20080;-34
2022/06/21 07:35:46;;;;;;;9.90;4.22;;;15.60;99.90;;;;;;5016805;28;20073;-34
2022/06/21 07:38:27;;;;;;;6.90;3.45;;;15.60;99.90;;;;;;4982072;28;20077;-34
2022/06/21 07:41:17;;;;;;;7.25;3.17;;;15.60;99.90;;;;;;5006467;28;20053;-34
2022/06/21 07:43:45;;;;;;;6.18;2.70;;;15.50;99.90;;;;;;5011508;28;20046;-34
2022/06/21 07:46:18;;;;;;;7.20;3.20;;;15.60;99.90;;;;;;4998753;28;20053;-34
2022/06/21 07:49:14;;;;;;;7.15;2.90;;;15.70;99.90;;;;;;4986546;28;20053;-35
2022/06/21 07:51:44;;;;;;;12.23;3.30;;;15.70;99.90;;;;;;4984358;28;20084;-34
2022/06/21 07:54:30;;;;;;;9.32;3.40;;;15.80;99.90;;;;;;5007826;28;20057;-34
2022/06/21 07:57:00;;;;;;;9.35;3.20;;;15.90;99.90;;;;;;4990863;28;20057;-34
2022/06/21 07:59:52;;;;;;;8.40;3.25;;;16.10;99.90;;;;;;4995036;28;20049;-35
2022/06/21 08:08:29;;;;;;;7.55;3.30;;;16.20;99.90;;;;;;4973262;28;20401;-35
2022/06/21 08:11:03;;;;;;;7.93;3.90;;;16.30;99.90;;;;;;5011034;28;20132;-34
2022/06/21 08:13:30;;;;;;;6.95;3.50;;;16.20;99.90;;;;;;4991800;28;20489;-34
2022/06/21 08:16:12;;;;;;;10.45;4.28;;;16.20;99.90;;;;;;5010493;28;20041;-34
2022/06/21 08:19:00;;;;;;;7.47;3.33;;;16.20;99.90;;;;;;5000786;28;20041;-34
2022/06/21 08:22:02;;;;;;;9.75;3.30;;;16.10;99.90;;;;;;5015783;28;20045;-34
2022/06/21 08:24:30;;;;;;;;;;;16.20;99.90;;;;;;4969873;28;20198;-34
2022/06/21 08:27:34;;;;;;;11.80;3.30;;;16.30;99.90;;;;;;4962942;28;19921;-35
2022/06/21 08:30:14;;;;;;;8.35;3.70;;;16.40;99.90;;;;;;5017653;28;20119;-35
2022/06/21 08:33:00;;;;;;;6.82;2.90;;;16.40;99.90;;;;;;5010176;28;20531;-35
2022/06/21 08:35:56;;;;;;;6.60;2.72;;;16.40;99.90;;;;;;5000076;28;20820;-34
2022/06/21 08:38:37;;;;;;;7.20;3.10;;;16.40;99.90;;;;;;4984051;28;20132;-35
2022/06/21 08:41:52;;;;;;;10.68;3.20;;;16.40;99.90;;;;;;4984388;28;20513;-35
2022/06/21 08:44:36;;;;;;;7.30;3.08;;;16.40;99.90;;;;;;5007769;28;20054;-34
2022/06/21 08:47:34;;;;;;;7.07;3.08;;;16.40;99.90;;;;;;4988658;28;20131;-34
2022/06/21 08:50:24;;;;;;;5.13;2.90;;;16.40;99.90;;;;;;5007085;28;20505;-34
2022/06/21 08:53:07;;;;;;;6.45;3.17;;;16.40;99.90;;;;;;4990062;28;20766;-34
2022/06/21 08:55:42;;;;;;;6.22;2.83;;;16.50;99.90;;;;;;4986625;28;20104;-34
2022/06/21 08:58:37;;;;;;;7.32;2.88;;;16.50;99.90;;;;;;4957560;28;20049;-35
2022/06/21 09:01:41;;;;;;;6.32;2.42;;;16.50;99.90;;;;;;5004775;28;20588;-34
2022/06/21 09:04:13;;;;;;;7.97;3.17;;;16.60;99.90;;;;;;4997540;28;20053;-34
2022/06/21 09:06:38;;;;;;;;;;;16.60;99.90;;;;;;4976388;28;20162;-35
2022/06/21 09:09:55;;;;;;;9.05;2.80;;;16.60;99.90;;;;;;5012033;28;20037;-34
2022/06/21 09:12:23;;;;;;;6.75;2.90;;;16.60;99.90;;;;;;4909999;28;20112;-35
2022/06/21 09:15:06;;;;;;;6.22;3.03;;;16.70;99.90;;;;;;4989051;28;20524;-34
2022/06/21 09:17:58;;;;;;;5.43;2.88;;;16.70;99.90;;;;;;4992106;28;20460;-35
2022/06/21 09:20:32;;;;;;;3.92;2.70;;;16.80;99.90;;;;;;5009899;28;20390;-35
2022/06/21 09:23:06;;;;;;;6.55;2.72;;;16.90;99.90;;;;;;5002451;28;20053;-34
2022/06/21 09:25:54;;;;;;;3.60;2.20;;;16.90;99.90;;;;;;4991620;28;20108;-35
2022/06/21 09:28:25;;;;;;;5.45;2.33;;;17.00;99.90;;;;;;4960072;28;20046;-35
2022/06/21 09:31:11;;;;;;;6.18;2.67;;;17.00;99.90;;;;;;4991222;28;20050;-35
2022/06/21 09:33:46;;;;;;;4.82;2.22;;;17.10;99.90;;;;;;5001354;28;20074;-34
2022/06/21 09:36:11;;;;;;;4.43;2.50;;;17.10;99.90;;;;;;4999485;28;20046;-34
2022/06/21 09:39:02;;;;;;;5.35;2.50;;;17.10;99.90;;;;;;5006045;28;20057;-34
2022/06/21 09:41:40;;;;;;;5.57;2.30;;;17.10;99.90;;;;;;5009139;28;20564;-34
2022/06/21 09:44:11;;;;;;;3.83;1.95;;;17.20;99.90;;;;;;4995022;28;20046;-34
2022/06/21 09:46:44;;;;;;;5.40;2.20;;;17.20;99.90;;;;;;4997325;28;20057;-34
2022/06/21 09:49:43;;;;;;;5.15;1.98;;;17.20;99.90;;;;;;5006209;28;20046;-35
2022/06/21 09:52:35;;;;;;;4.25;2.00;;;17.20;99.90;;;;;;4993316;28;20062;-34
2022/06/21 09:55:20;;;;;;;7.05;2.20;;;17.40;99.90;;;;;;4993190;28;20088;-35
2022/06/21 09:58:13;;;;;;;5.85;1.92;;;17.40;99.90;;;;;;4997564;28;20050;-35
2022/06/21 10:00:54;;;;;;;4.43;1.70;;;17.50;99.90;;;;;;5011180;28;20107;-34
2022/06/21 10:03:26;;;;;;;5.50;1.90;;;17.50;99.90;;;;;;5007646;28;20042;-34
2022/06/21 10:06:00;;;;;;;5.88;2.03;;;17.50;99.90;;;;;;5006451;28;20057;-34
2022/06/21 10:08:45;;;;;;;5.10;1.90;;;17.50;99.90;;;;;;4993485;28;20056;-34
2022/06/21 10:11:28;;;;;;;2.92;1.40;;;17.50;99.90;;;;;;4993525;28;20132;-34
2022/06/21 10:14:07;;;;;;;6.55;1.30;;;17.40;99.90;;;;;;4994562;28;20054;-34
2022/06/21 10:16:47;;;;;;;6.97;1.45;;;17.50;99.90;;;;;;4998755;28;20149;-35
2022/06/21 10:19:45;;;;;;;5.30;1.67;;;17.60;99.90;;;;;;5008285;28;20054;-35
2022/06/21 10:22:30;;;;;;;7.05;1.90;;;17.70;99.90;;;;;;4961784;28;20137;-35
2022/06/21 10:25:02;;;;;;;2.97;1.60;;;17.70;99.90;;;;;;5013179;28;20045;-34
2022/06/21 10:27:55;;;;;;;4.60;1.67;;;17.70;99.90;;;;;;4994115;28;20045;-34
2022/06/21 10:30:30;;;;;;;4.85;1.55;;;17.80;99.90;;;;;;5009465;28;20053;-34
2022/06/21 10:32:55;;;;;;;4.47;1.75;;;17.90;99.90;;;;;;5009387;28;20053;-35
2022/06/21 10:35:33;;;;;;;4.38;1.70;;;17.90;99.90;;;;;;5010036;28;20061;-34
2022/06/21 10:38:20;;;;;;;4.10;1.80;;;18.10;99.90;;;;;;4981192;28;20062;-34
2022/06/21 10:41:04;;;;;;;5.20;1.50;;;18.10;99.90;;;;;;5012904;28;20069;-34
2022/06/21 10:43:49;;;;;;;2.30;1.23;;;18.10;99.90;;;;;;4994176;28;20049;-34
2022/06/21 10:46:48;;;;;;;3.20;1.30;;;18.10;99.90;;;;;;5004004;28;20049;-35
2022/06/21 10:49:40;;;;;;;3.45;1.20;;;18.00;99.90;;;;;;5012873;28;20405;-34
2022/06/21 10:52:27;;;;;;;4.65;1.30;;;18.00;99.90;;;;;;5012425;28;20040;-35
2022/06/21 10:55:14;;;;;;;4.20;0.95;;;18.00;99.90;;;;;;5016734;28;20107;-34
2022/06/21 10:57:49;;;;;;;2.22;0.98;;;18.10;99.90;;;;;;4996950;28;20708;-35
2022/06/21 11:03:49;;;;;;;6.32;1.33;;;18.50;99.90;;;;;;5005272;28;20080;-35
2022/06/21 11:06:48;;;;;;;5.70;1.38;;;18.60;99.90;;;;;;4995002;28;20050;-34
2022/06/21 11:09:24;;;;;;;4.40;1.35;;;18.70;99.90;;;;;;5007205;28;20404;-35
2022/06/21 11:15:11;;;;;;;3.63;1.00;;;18.70;99.90;;;;;;5007599;28;20524;-34
2022/06/21 11:18:14;;;;;;;5.57;1.45;;;18.70;99.90;;;;;;4994068;28;20073;-35
2022/06/21 11:20:52;;;;;;;3.25;1.10;;;18.80;99.90;;;;;;5006964;28;20066;-34
2022/06/21 11:23:28;;;;;;;3.28;1.10;;;18.90;99.90;;;;;;5005818;28;20049;-34
2022/06/21 11:26:07;;;;;;;2.83;1.00;;;18.90;99.90;;;;;;5009051;28;20116;-34
2022/06/21 11:28:52;;;;;;;2.72;0.85;;;19.10;99.90;;;;;;4998009;28;20930;-34
2022/06/21 11:31:25;;;;;;;3.22;1.00;;;19.20;99.90;;;;;;4992251;28;20046;-35
2022/06/21 11:34:28;;;;;;;3.55;1.02;;;19.20;99.90;;;;;;5008792;28;20096;-35
2022/06/21 11:37:34;;;;;;;4.05;1.38;;;19.30;99.90;;;;;;4994947;28;20065;-35
2022/06/21 11:40:27;;;;;;;4.35;1.50;;;19.40;99.90;;;;;;5006947;28;20045;-34
2022/06/21 11:42:55;;;;;;;2.33;1.05;;;19.40;99.90;;;;;;4990254;28;20050;-35
2022/06/21 11:45:38;;;;;;;3.17;1.20;;;19.60;99.90;;;;;;4989513;28;20413;-35
2022/06/21 11:48:28;;;;;;;5.32;1.40;;;19.70;99.90;;;;;;4992829;28;20049;-34
2022/06/21 11:51:09;;;;;;;4.63;1.40;;;19.80;99.90;;;;;;5008417;28;20042;-35
2022/06/21 11:53:35;;;;;;;3.85;1.50;;;19.80;99.90;;;;;;4989192;28;20050;-35
2022/06/21 11:56:19;;;;;;;4.65;1.25;;;19.90;99.90;;;;;;5009198;28;20041;-35
2022/06/21 11:58:56;;;;;;;4.72;1.30;;;20.10;99.90;;;;;;4986588;28;20105;-35
2022/06/21 12:01:42;;;;;;;4.95;1.30;;;20.20;99.90;;;;;;5007214;28;20053;-35
2022/06/21 12:04:29;;;;;;;2.97;1.20;;;20.30;99.90;;;;;;5007652;28;20053;-35
2022/06/21 12:07:12;;;;;;;3.67;1.20;;;20.30;99.90;;;;;;4993312;28;20867;-35
2022/06/21 12:09:48;;;;;;;3.45;1.23;;;20.40;99.90;;;;;;4973149;28;20739;-35
2022/06/21 12:12:20;;;;;;;3.45;1.23;;;20.50;99.90;;;;;;5007828;28;20053;-35
2022/06/21 12:15:25;;;;;;;4.57;1.33;;;20.60;99.90;;;;;;5007037;28;20390;-35
2022/06/21 12:18:17;;;;;;;3.70;1.48;;;20.70;99.90;;;;;;4976442;28;20046;-35
2022/06/21 12:21:01;;;;;;;3.13;1.10;;;20.70;99.90;;;;;;5006013;28;20073;-35
2022/06/21 12:23:36;;;;;;;2.90;1.20;;;20.90;99.90;;;;;;4989190;28;20082;-35
2022/06/21 12:26:04;;;;;;;2.45;0.98;;;21.00;99.90;;;;;;5008400;28;20042;-35
2022/06/21 12:28:33;;;;;;;3.03;1.50;;;21.10;99.90;;;;;;4992045;28;20054;-35
2022/06/21 12:31:03;;;;;;;3.38;0.90;;;21.10;99.90;;;;;;5008053;28;20643;-35
2022/06/21 12:33:37;;;;;;;2.63;1.15;;;21.20;99.90;;;;;;4986246;28;20076;-35
2022/06/21 12:36:03;;;;;;;3.10;1.15;;;21.30;99.90;;;;;;5008582;28;20050;-35
2022/06/21 12:38:44;;;;;;;3.50;1.40;;;21.40;99.90;;;;;;4971610;28;20064;-35
2022/06/21 12:41:33;;;;;;;2.42;1.23;;;21.40;99.90;;;;;;5008036;28;20108;-35
2022/06/21 12:44:34;;;;;;;2.60;1.15;;;21.50;99.90;;;;;;5006774;28;20482;-34
2022/06/21 12:46:59;;;;;;;5.05;1.00;;;21.50;99.90;;;;;;5007073;28;20638;-35
2022/06/21 12:50:03;;;;;;;9.05;1.58;;;21.60;99.90;;;;;;5006911;28;20054;-35
2022/06/21 12:52:56;;;;;;;3.22;0.95;;;21.70;99.90;;;;;;5007377;28;20053;-34
2022/06/21 12:55:43;;;;;;;2.90;1.30;;;21.70;99.90;;;;;;5013396;28;20053;-35
2022/06/21 12:58:33;;;;;;;4.05;1.30;;;21.80;99.90;;;;;;4999419;28;20042;-35
2022/06/21 13:01:09;;;;;;;8.07;1.33;;;21.90;99.90;;;;;;4993833;28;20080;-35
2022/06/21 13:04:18;;;;;;;2.67;1.05;;;22.10;99.90;;;;;;5010039;28;20042;-35
2022/06/21 13:07:21;;;;;;;4.20;1.20;;;22.20;99.90;;;;;;4993359;28;20057;-35
2022/06/21 13:10:04;;;;;;;2.85;1.00;;;22.40;99.90;;;;;;5010991;28;20532;-35
2022/06/21 13:12:48;;;;;;;4.85;0.90;;;22.60;99.90;;;;;;5012408;28;20052;-35
2022/06/21 13:15:29;;;;;;;3.67;1.00;;;22.70;99.90;;;;;;5009829;28;20076;-35
2022/06/21 13:18:12;;;;;;;3.33;1.00;;;22.70;99.90;;;;;;4996311;28;20053;-35
2022/06/21 13:21:19;;;;;;;1.95;0.77;;;22.80;99.90;;;;;;5017189;28;20072;-35
2022/06/21 13:23:45;;;;;;;4.07;1.05;;;22.90;99.90;;;;;;4990174;28;20050;-35
2022/06/21 13:26:22;;;;;;;3.10;1.02;;;22.90;99.90;;;;;;4985410;28;20056;-35
2022/06/21 13:29:03;;;;;;;2.33;0.77;;;22.90;99.90;;;;;;5013928;28;20057;-36
2022/06/21 13:31:43;;;;;;;3.78;0.80;;;22.80;99.90;;;;;;5012279;28;20061;-35
2022/06/21 13:34:36;;;;;;;4.70;1.10;;;22.80;99.90;;;;;;4991571;28;20046;-35
2022/06/21 13:37:25;;;;;;;2.10;0.75;;;22.80;99.90;;;;;;4995319;28;20056;-35
2022/06/21 13:40:21;;;;;;;3.92;0.90;;;22.70;99.90;;;;;;5011077;28;20088;-35
2022/06/21 13:42:55;;;;;;;2.97;0.60;;;22.70;99.90;;;;;;5009273;28;20057;-35
2022/06/21 13:45:48;;;;;;;11.73;0.90;;;22.70;99.90;;;;;;5007239;28;20061;-35
2022/06/21 13:48:36;;;;;;;7.53;1.00;;;22.60;99.90;;;;;;4992977;28;20046;-35
2022/06/21 13:51:23;;;;;;;5.10;0.90;;;22.60;99.90;;;;;;5010980;28;20125;-35
2022/06/21 13:53:54;;;;;;;1.92;0.70;;;22.70;99.90;;;;;;5012123;28;20104;-35
2022/06/21 13:56:34;;;;;;;2.28;1.00;;;22.60;99.90;;;;;;4999209;28;20486;-35
2022/06/21 13:59:21;;;;;;;3.17;0.98;;;22.60;99.50;;;;;;4990311;28;20104;-35
2022/06/21 14:01:54;;;;;;;2.38;0.68;;;22.50;98.70;;;;;;5009377;28;20161;-35
2022/06/21 14:04:41;;;;;;;3.90;1.00;;;22.40;97.30;;;;;;5008766;28;20492;-35